Time;durP1;ratioP1;P1;durP2;ratioP2;P2;SDS_P1;SDS_P2;PMS_P1;PMS_P2;Temp;Humidity;BMP_temperature;BMP_pressure;BME280_temperature;BME280_humidity;BME280_pressure;Samples;Min_cycle;Max_cycle;Signal;HPM_P1;HPM_P2
2023/10/26 05:24:47;;;;;;;1.33;0.90;;;8.50;91.70;;;;;;5155480;27;20149;-78
2023/10/26 05:27:13;;;;;;;2.22;1.08;;;8.40;92.10;;;;;;5109925;28;20405;-79
2023/10/26 05:29:38;;;;;;;2.55;1.33;;;8.40;92.70;;;;;;5111065;28;20043;-79
2023/10/26 05:32:05;;;;;;;0.93;0.73;;;8.50;93.30;;;;;;5142056;28;20038;-79
2023/10/26 05:34:31;;;;;;;1.92;1.00;;;8.50;93.80;;;;;;5124777;28;20048;-78
2023/10/26 05:36:57;;;;;;;1.42;1.02;;;8.50;94.30;;;;;;5138460;28;20114;-77
2023/10/26 05:39:23;;;;;;;2.35;1.25;;;8.60;94.60;;;;;;5140182;28;20042;-80
2023/10/26 05:41:48;;;;;;;1.83;1.10;;;8.60;94.90;;;;;;5103136;28;20040;-78
2023/10/26 05:44:14;;;;;;;2.15;1.13;;;8.70;95.10;;;;;;5122722;28;20039;-79
2023/10/26 05:46:40;;;;;;;2.92;1.52;;;8.70;95.20;;;;;;5123541;28;20040;-79
2023/10/26 05:49:06;;;;;;;1.98;1.20;;;8.80;95.30;;;;;;5124032;28;20065;-78
2023/10/26 05:51:31;;;;;;;3.33;1.67;;;8.80;95.40;;;;;;5121144;28;20099;-78
2023/10/26 05:53:57;;;;;;;3.58;1.63;;;8.80;95.50;;;;;;5119292;28;20035;-78
2023/10/26 05:56:23;;;;;;;2.90;1.50;;;8.90;95.60;;;;;;5086265;28;20040;-78
2023/10/26 05:58:50;;;;;;;3.03;1.67;;;8.80;95.70;;;;;;5139890;28;20049;-78
2023/10/26 06:01:16;;;;;;;3.10;1.40;;;9.00;95.70;;;;;;5104706;28;20111;-79
2023/10/26 06:03:43;;;;;;;3.25;1.60;;;8.90;95.70;;;;;;5124104;28;20130;-78
2023/10/26 06:06:08;;;;;;;2.70;1.42;;;8.90;95.70;;;;;;5122715;28;20039;-78
2023/10/26 06:08:34;;;;;;;3.17;1.60;;;8.90;95.80;;;;;;5117903;28;20043;-77
2023/10/26 06:11:00;;;;;;;2.50;1.33;;;8.90;95.80;;;;;;5080285;28;20031;-77
2023/10/26 06:13:26;;;;;;;4.05;1.92;;;9.00;95.80;;;;;;5113995;28;20039;-76
2023/10/26 06:15:51;;;;;;;3.13;1.55;;;9.00;95.80;;;;;;5097091;28;20035;-76
2023/10/26 06:18:17;;;;;;;2.80;1.55;;;8.90;95.80;;;;;;5114078;28;20051;-77
2023/10/26 06:20:55;;;;;;;3.33;1.65;;;9.00;95.80;;;;;;5098735;28;20036;-78
2023/10/26 06:23:20;;;;;;;2.80;1.38;;;9.00;95.80;;;;;;5087668;28;20071;-79
2023/10/26 06:25:46;;;;;;;3.22;1.70;;;9.00;95.80;;;;;;5099655;28;20088;-78
2023/10/26 06:28:13;;;;;;;2.90;1.33;;;9.00;95.80;;;;;;5100121;28;20118;-77
2023/10/26 06:39:07;;;;;;;3.03;1.48;;;9.00;95.90;;;;;;4931037;29;20250;-81
2023/10/26 07:14:42;;;;;;;2.90;1.02;;;9.00;95.80;;;;;;4881688;29;20163;-81
2023/10/26 07:17:46;;;;;;;3.58;1.30;;;9.00;95.70;;;;;;4836046;29;20535;-76
2023/10/26 07:23:37;;;;;;;2.72;1.27;;;8.90;95.70;;;;;;4894506;29;20100;-80
2023/10/26 07:26:44;;;;;;;2.47;1.20;;;8.90;95.80;;;;;;4889165;29;20169;-78
2023/10/26 07:29:52;;;;;;;2.95;1.20;;;9.00;95.80;;;;;;4876489;29;20041;-79
2023/10/26 07:32:55;;;;;;;1.77;1.15;;;9.00;95.80;;;;;;4773242;30;20063;-81
2023/10/26 07:46:53;;;;;;;2.15;1.13;;;9.00;95.80;;;;;;4802578;29;20046;-79
2023/10/26 07:49:48;;;;;;;3.38;1.67;;;9.10;95.70;;;;;;4788466;29;20126;-80
2023/10/26 07:52:27;;;;;;;1.70;1.15;;;9.10;95.70;;;;;;4784880;29;20054;-79
2023/10/26 07:54:53;;;;;;;1.45;1.08;;;9.10;95.90;;;;;;4807807;29;20046;-77
2023/10/26 07:57:25;;;;;;;2.35;1.20;;;9.10;95.70;;;;;;4823508;29;20050;-78
2023/10/26 08:00:32;;;;;;;1.73;1.10;;;9.10;95.70;;;;;;4861568;29;20060;-78
2023/10/26 08:06:08;;;;;;;2.03;1.17;;;9.10;95.60;;;;;;4977933;28;20064;-79
2023/10/26 08:11:47;;;;;;;1.50;0.93;;;9.20;95.70;;;;;;4898822;29;20037;-78
2023/10/26 08:14:40;;;;;;;2.50;1.23;;;9.20;95.70;;;;;;4843795;29;20054;-77
2023/10/26 08:17:50;;;;;;;1.15;0.82;;;9.30;95.70;;;;;;4874207;29;20046;-77
2023/10/26 08:21:50;;;;;;;2.50;1.38;;;9.20;95.70;;;;;;4875342;29;20045;-78
2023/10/26 08:23:59;;;;;;;5.18;1.60;;;9.30;95.70;;;;;;4892535;29;20495;-76
2023/10/26 08:26:25;;;;;;;6.60;1.73;;;9.30;95.70;;;;;;4884703;29;20104;-77
2023/10/26 08:32:53;;;;;;;2.07;1.10;;;9.40;95.60;;;;;;4837980;29;20046;-77
2023/10/26 08:35:27;;;;;;;1.73;1.00;;;9.50;95.60;;;;;;4784781;30;20297;-77
2023/10/26 08:42:19;;;;;;;2.17;1.20;;;9.60;95.60;;;;;;4767666;30;20078;-80
2023/10/26 08:47:50;;;;;;;2.08;1.20;;;9.60;95.50;;;;;;4787182;29;20288;-79
2023/10/26 08:54:34;;;;;;;1.67;1.10;;;9.60;95.40;;;;;;4742794;30;20111;-77
2023/10/26 09:14:04;;;;;;;3.53;1.60;;;9.80;95.40;;;;;;4810247;29;20062;-78
2023/10/26 09:20:46;;;;;;;2.67;1.20;;;10.00;95.50;;;;;;4676990;30;20103;-78
2023/10/26 09:24:10;;;;;;;3.47;1.70;;;10.00;95.40;;;;;;4698073;30;20057;-78
2023/10/26 09:27:12;;;;;;;1.98;1.20;;;10.20;95.40;;;;;;4722850;30;20064;-76
2023/10/26 09:30:25;;;;;;;4.30;1.90;;;10.20;95.30;;;;;;4731142;30;20103;-77
2023/10/26 09:36:57;;;;;;;2.75;1.60;;;10.30;95.30;;;;;;4731344;30;20055;-75
2023/10/26 09:39:23;;;;;;;4.22;1.88;;;10.40;95.30;;;;;;4700291;30;20547;-76
2023/10/26 09:41:49;;;;;;;3.78;1.83;;;10.50;95.30;;;;;;4713974;30;20061;-74
2023/10/26 09:48:18;;;;;;;1.98;1.30;;;10.60;95.20;;;;;;4758533;30;20105;-77
2023/10/26 09:51:06;;;;;;;3.60;1.70;;;10.60;95.10;;;;;;4747938;30;20032;-78
2023/10/26 09:56:35;;;;;;;3.92;2.08;;;10.60;95.10;;;;;;4779277;29;20040;-78
2023/10/26 09:59:01;;;;;;;4.18;2.17;;;10.70;95.20;;;;;;4776408;30;20116;-76
2023/10/26 10:01:37;;;;;;;5.05;2.25;;;10.70;95.20;;;;;;4778962;30;20116;-77
2023/10/26 10:04:05;;;;;;;4.32;2.03;;;10.70;95.10;;;;;;4769182;30;20062;-77
2023/10/26 10:06:50;;;;;;;4.63;2.33;;;10.80;95.20;;;;;;4792143;29;20058;-77
2023/10/26 10:09:19;;;;;;;4.03;2.38;;;10.80;95.20;;;;;;4806261;29;20152;-76
2023/10/26 10:12:11;;;;;;;3.90;1.70;;;10.90;95.10;;;;;;4824236;29;20087;-76
2023/10/26 10:14:54;;;;;;;;;;;11.00;95.10;;;;;;4839829;29;20106;-76
2023/10/26 10:17:22;;;;;;;3.08;1.50;;;10.90;95.00;;;;;;4835326;29;19916;-77
2023/10/26 10:20:29;;;;;;;4.25;2.13;;;11.10;95.00;;;;;;4883941;29;20048;-77
2023/10/26 10:22:58;;;;;;;3.30;1.80;;;11.10;95.00;;;;;;4929994;29;20482;-76
2023/10/26 10:25:56;;;;;;;3.55;1.58;;;11.10;94.90;;;;;;4916492;29;20080;-78
2023/10/26 10:28:22;;;;;;;3.13;1.75;;;11.10;94.90;;;;;;4900569;29;20175;-76
2023/10/26 10:30:57;;;;;;;4.68;2.17;;;11.30;95.20;;;;;;4951121;28;20083;-76
2023/10/26 10:33:25;;;;;;;5.50;2.50;;;11.20;94.90;;;;;;4950581;28;20048;-77
2023/10/26 10:36:01;;;;;;;5.53;2.72;;;11.30;94.90;;;;;;4943993;28;20050;-77
2023/10/26 10:38:27;;;;;;;5.00;2.53;;;11.30;94.90;;;;;;4976239;28;20138;-77
2023/10/26 10:41:09;;;;;;;4.05;2.33;;;11.30;94.90;;;;;;4974109;28;20515;-78
2023/10/26 10:43:40;;;;;;;3.63;2.13;;;11.40;94.90;;;;;;4994176;28;20044;-77
2023/10/26 10:46:21;;;;;;;4.95;2.45;;;11.40;94.90;;;;;;4999603;28;20030;-78
2023/10/26 10:49:29;;;;;;;3.42;1.85;;;11.50;94.90;;;;;;5035103;28;20037;-77
2023/10/26 12:16:14;;;;;;;3.25;1.83;;;11.90;94.50;;;;;;5176218;23;20134;-76
2023/10/26 12:19:02;;;;;;;3.33;1.95;;;11.90;94.50;;;;;;4974036;28;20512;-77
2023/10/26 12:21:53;;;;;;;2.95;1.80;;;11.90;94.50;;;;;;4962458;28;20101;-76
2023/10/26 12:24:35;;;;;;;4.22;2.17;;;11.90;94.40;;;;;;4894620;29;20072;-77
2023/10/26 12:31:25;;;;;;;3.00;1.65;;;11.80;94.50;;;;;;4800113;29;20043;-77
2023/10/26 13:03:53;;;;;;;2.90;1.80;;;11.90;94.30;;;;;;4745765;30;20104;-78
2023/10/26 13:17:34;;;;;;;3.42;1.95;;;12.00;94.10;;;;;;4747729;30;20063;-78
2023/10/26 13:20:42;;;;;;;3.20;1.83;;;12.00;94.10;;;;;;4765164;30;20420;-77
2023/10/26 13:24:15;;;;;;;2.75;1.63;;;11.90;94.10;;;;;;4749326;30;20052;-78
2023/10/26 13:42:03;;;;;;;3.08;1.60;;;11.90;94.10;;;;;;4779454;29;20517;-76
2023/10/26 14:42:07;;;;;;;2.35;1.33;;;12.10;93.80;;;;;;4815894;29;20050;-77
2023/10/26 14:44:46;;;;;;;2.38;1.38;;;12.20;93.80;;;;;;4805651;29;20463;-76
2023/10/26 14:47:31;;;;;;;2.65;1.58;;;12.20;93.80;;;;;;4771100;30;20201;-77
2023/10/26 14:50:05;;;;;;;2.85;1.50;;;12.20;93.70;;;;;;4750080;30;20060;-76
2023/10/26 14:53:23;;;;;;;2.20;1.25;;;12.10;93.70;;;;;;4734594;30;20048;-78
2023/10/26 14:56:17;;;;;;;2.15;1.30;;;12.20;93.70;;;;;;4711633;30;20433;-78
2023/10/26 15:09:56;;;;;;;2.28;1.30;;;11.90;93.70;;;;;;4560289;31;20125;-79
2023/10/26 15:13:50;;;;;;;2.10;1.23;;;11.90;93.80;;;;;;4601807;31;20517;-75
2023/10/26 15:35:06;;;;;;;2.83;1.25;;;11.50;94.00;;;;;;4628295;31;20063;-77
2023/10/26 15:38:41;;;;;;;2.60;1.23;;;11.40;93.90;;;;;;4646793;30;20055;-78
2023/10/26 15:41:22;;;;;;;2.63;1.42;;;11.40;93.90;;;;;;4593322;31;20245;-78
2023/10/26 15:51:37;;;;;;;1.60;1.00;;;11.30;93.90;;;;;;4628234;30;20495;-77
2023/10/26 15:57:47;;;;;;;1.75;1.20;;;11.30;93.90;;;;;;4642673;30;20058;-77
2023/10/26 16:00:17;;;;;;;2.35;1.30;;;11.30;93.90;;;;;;4656877;30;20114;-77
2023/10/26 16:03:18;;;;;;;2.22;1.52;;;11.20;93.90;;;;;;4658585;30;20046;-78
2023/10/26 16:10:33;;;;;;;2.33;1.08;;;11.30;93.90;;;;;;4679524;30;20057;-77
2023/10/26 16:20:11;;;;;;;2.77;1.30;;;11.10;93.90;;;;;;4731204;30;20055;-78
2023/10/26 16:22:37;;;;;;;2.38;1.40;;;11.10;94.10;;;;;;4697281;30;20057;-78
2023/10/26 16:25:03;;;;;;;2.72;1.50;;;11.10;93.90;;;;;;4726223;30;20431;-78
2023/10/26 16:27:28;;;;;;;2.00;1.27;;;11.00;93.90;;;;;;4727225;30;20507;-78
2023/10/26 16:29:54;;;;;;;2.20;1.20;;;11.00;93.90;;;;;;4732272;30;20128;-78
2023/10/26 16:32:26;;;;;;;1.55;1.20;;;11.00;93.90;;;;;;4749536;30;20047;-77
2023/10/26 16:34:52;;;;;;;2.38;1.50;;;11.00;93.80;;;;;;4732496;30;20057;-78
2023/10/26 16:37:18;;;;;;;3.00;1.60;;;11.00;93.80;;;;;;4740215;30;20063;-78
2023/10/26 16:39:44;;;;;;;2.47;1.40;;;11.00;93.80;;;;;;4731520;30;20041;-77
2023/10/26 16:42:09;;;;;;;2.08;1.30;;;11.00;93.90;;;;;;4731732;30;20067;-78
2023/10/26 16:44:35;;;;;;;2.58;1.50;;;11.00;93.80;;;;;;4762123;30;20048;-78
2023/10/26 16:47:01;;;;;;;2.15;1.40;;;10.90;93.80;;;;;;4787218;29;20430;-77
2023/10/26 16:49:27;;;;;;;1.75;1.10;;;11.00;93.80;;;;;;4805926;29;20121;-77
2023/10/26 16:51:53;;;;;;;2.08;1.38;;;11.00;93.80;;;;;;4805643;29;20047;-77
2023/10/26 16:54:18;;;;;;;2.35;1.42;;;10.90;93.80;;;;;;4860280;29;20053;-77
2023/10/26 16:56:44;;;;;;;2.22;1.40;;;10.90;93.80;;;;;;4880045;29;20040;-77
2023/10/26 16:59:10;;;;;;;2.47;1.30;;;10.90;93.80;;;;;;4879935;29;20040;-77
2023/10/26 17:01:35;;;;;;;2.53;1.30;;;10.90;93.80;;;;;;4864251;29;20051;-77
2023/10/26 17:04:01;;;;;;;2.25;1.40;;;10.90;93.80;;;;;;4880070;29;20036;-78
2023/10/26 17:06:27;;;;;;;1.52;1.10;;;10.90;93.80;;;;;;4899248;29;20044;-78
2023/10/26 17:09:06;;;;;;;2.78;1.30;;;10.90;93.80;;;;;;4890868;29;20441;-81
2023/10/26 17:11:31;;;;;;;2.00;1.25;;;10.80;93.80;;;;;;4895178;29;20120;-77
2023/10/26 17:13:57;;;;;;;1.77;1.10;;;10.80;93.80;;;;;;4904843;29;20080;-77
2023/10/26 17:16:23;;;;;;;2.17;1.10;;;10.80;93.80;;;;;;4892927;29;20048;-77
2023/10/26 17:18:48;;;;;;;2.10;1.30;;;10.80;93.80;;;;;;4893652;29;20040;-78
2023/10/26 17:21:14;;;;;;;2.47;1.50;;;10.80;93.80;;;;;;4870349;29;20037;-78
2023/10/26 17:23:41;;;;;;;2.83;1.42;;;10.90;93.80;;;;;;4891268;29;20134;-77
2023/10/26 17:26:12;;;;;;;1.83;1.20;;;10.80;93.80;;;;;;4903346;29;20033;-77
2023/10/26 17:28:37;;;;;;;1.85;1.17;;;10.80;93.80;;;;;;4913511;29;20056;-77
2023/10/26 17:31:05;;;;;;;2.25;1.30;;;10.80;93.80;;;;;;4875639;29;20053;-77
2023/10/26 17:33:33;;;;;;;2.60;1.20;;;10.80;93.80;;;;;;4826219;29;20055;-77
2023/10/26 17:36:03;;;;;;;1.20;1.00;;;10.70;93.80;;;;;;4812195;29;20065;-77
2023/10/26 17:38:32;;;;;;;1.80;1.10;;;10.80;93.80;;;;;;4826717;29;20082;-78
2023/10/26 17:41:13;;;;;;;2.38;1.30;;;10.70;93.80;;;;;;4826580;29;20035;-78
2023/10/26 17:43:39;;;;;;;1.80;1.15;;;10.80;93.80;;;;;;4824990;29;20059;-77
2023/10/26 17:46:07;;;;;;;1.63;1.10;;;10.80;93.80;;;;;;4804327;29;20118;-77
2023/10/26 17:48:34;;;;;;;1.95;1.13;;;10.80;93.80;;;;;;4815964;29;20098;-78
2023/10/26 17:51:06;;;;;;;1.95;1.23;;;10.90;93.80;;;;;;4801259;29;20039;-78
2023/10/26 17:53:34;;;;;;;2.78;1.40;;;10.80;93.80;;;;;;4781487;29;20115;-77
2023/10/26 17:56:01;;;;;;;2.70;1.50;;;10.80;93.70;;;;;;4796726;29;20059;-77
2023/10/26 17:58:29;;;;;;;2.95;1.55;;;10.80;93.80;;;;;;4795310;30;20047;-78
2023/10/26 18:01:13;;;;;;;2.53;1.40;;;10.70;93.70;;;;;;4795784;29;20050;-77
2023/10/26 18:03:39;;;;;;;2.72;1.55;;;10.80;93.70;;;;;;4793475;29;20196;-77
2023/10/26 18:06:05;;;;;;;2.28;1.50;;;10.80;93.70;;;;;;4839455;29;20038;-78
2023/10/26 18:08:32;;;;;;;2.15;1.25;;;10.80;93.70;;;;;;4808269;29;20585;-78
2023/10/26 18:10:59;;;;;;;3.00;1.73;;;10.80;93.70;;;;;;4840275;29;20520;-77
2023/10/26 18:13:24;;;;;;;2.63;1.48;;;10.80;93.70;;;;;;4835187;29;20046;-77
2023/10/26 18:59:40;;;;;;;2.08;1.30;;;10.80;93.60;;;;;;4853628;29;20057;-77
2023/10/26 19:22:16;;;;;;;3.30;1.63;;;10.80;93.60;;;;;;4979269;23;20134;-77
2023/10/26 19:24:42;;;;;;;2.45;1.40;;;10.80;93.60;;;;;;4920559;29;20087;-77
2023/10/26 19:27:08;;;;;;;2.80;1.60;;;10.70;93.60;;;;;;4921122;29;20024;-77
2023/10/26 19:29:33;;;;;;;3.40;1.70;;;10.70;93.60;;;;;;4934772;29;20060;-77
2023/10/26 19:31:59;;;;;;;3.40;1.80;;;10.80;93.60;;;;;;4933862;29;20071;-78
2023/10/26 19:34:25;;;;;;;2.75;1.73;;;10.70;93.60;;;;;;4935197;29;20048;-77
2023/10/26 19:36:50;;;;;;;3.88;1.80;;;10.70;93.60;;;;;;4917599;29;20036;-77
2023/10/26 19:39:16;;;;;;;2.58;1.70;;;10.80;93.60;;;;;;4938635;29;20072;-77
2023/10/26 19:41:42;;;;;;;3.83;1.83;;;10.90;93.70;;;;;;4932751;29;20054;-77
2023/10/26 19:44:09;;;;;;;2.28;1.40;;;10.80;93.70;;;;;;4936305;29;20166;-77
2023/10/26 19:46:38;;;;;;;3.70;2.13;;;10.80;93.70;;;;;;4908694;29;20419;-77
2023/10/26 19:49:04;;;;;;;3.45;1.80;;;10.80;93.70;;;;;;4923776;29;20039;-77
2023/10/26 19:51:30;;;;;;;3.00;1.65;;;10.80;93.70;;;;;;4900883;29;20060;-77
2023/10/26 19:53:56;;;;;;;4.18;2.13;;;10.80;93.70;;;;;;4921528;29;20836;-77
2023/10/26 19:56:22;;;;;;;4.13;2.13;;;10.80;93.70;;;;;;4907556;29;20056;-77
2023/10/26 19:58:48;;;;;;;3.38;1.95;;;10.80;93.60;;;;;;4916348;29;20062;-76
2023/10/26 20:01:14;;;;;;;3.85;2.05;;;10.80;93.60;;;;;;4917063;29;20012;-76
2023/10/26 20:03:40;;;;;;;4.32;2.38;;;10.80;93.60;;;;;;4921634;29;20067;-76
2023/10/26 20:06:10;;;;;;;4.47;2.10;;;10.80;93.60;;;;;;4921064;29;20063;-77
2023/10/26 20:08:36;;;;;;;3.65;2.08;;;10.80;93.60;;;;;;4901552;29;20044;-75
2023/10/26 20:11:04;;;;;;;3.90;2.10;;;10.80;93.60;;;;;;4918200;29;20043;-75
2023/10/26 20:13:29;;;;;;;3.33;1.73;;;10.80;93.60;;;;;;4902030;29;20055;-76
2023/10/26 20:15:56;;;;;;;3.58;2.00;;;10.80;93.60;;;;;;4917227;29;20829;-75
2023/10/26 20:18:22;;;;;;;4.07;2.03;;;10.90;93.70;;;;;;4917648;29;20036;-75
2023/10/26 20:20:48;;;;;;;4.15;2.05;;;10.80;93.60;;;;;;4918164;29;20083;-76
2023/10/26 20:23:13;;;;;;;3.72;2.13;;;10.80;93.60;;;;;;4912334;29;20044;-75
2023/10/26 20:25:40;;;;;;;3.55;1.85;;;11.00;93.70;;;;;;4879287;29;20048;-76
2023/10/26 20:28:06;;;;;;;3.30;2.08;;;10.80;93.60;;;;;;4894621;29;20041;-75
2023/10/26 20:30:32;;;;;;;3.55;1.90;;;10.80;93.60;;;;;;4909774;29;20047;-75
2023/10/26 20:32:58;;;;;;;3.33;1.70;;;10.90;93.70;;;;;;4911719;29;20045;-75
2023/10/26 20:35:24;;;;;;;3.28;1.83;;;10.80;93.60;;;;;;4896037;29;20052;-75
2023/10/26 20:37:49;;;;;;;4.47;2.20;;;10.80;93.60;;;;;;4896889;29;20041;-75
2023/10/26 20:40:15;;;;;;;4.53;2.45;;;10.90;93.60;;;;;;4896579;29;20044;-75
2023/10/26 20:42:42;;;;;;;3.42;2.05;;;10.80;93.60;;;;;;4881067;29;20104;-75
2023/10/26 20:45:10;;;;;;;3.08;1.80;;;10.80;93.60;;;;;;4912736;29;20146;-75
2023/10/26 20:47:36;;;;;;;3.08;1.90;;;11.00;93.70;;;;;;4912070;29;20029;-75
2023/10/26 20:50:04;;;;;;;4.45;2.15;;;10.80;93.60;;;;;;4897154;29;20081;-75
2023/10/26 20:52:30;;;;;;;4.18;2.25;;;10.80;93.60;;;;;;4912156;29;20048;-75
2023/10/26 20:54:56;;;;;;;3.90;2.20;;;10.90;93.70;;;;;;4914892;29;20055;-75
2023/10/26 20:57:22;;;;;;;4.25;2.13;;;10.80;93.60;;;;;;4916544;29;20071;-75
2023/10/26 20:59:48;;;;;;;4.63;2.45;;;10.80;93.60;;;;;;4914956;29;20044;-75
2023/10/26 21:02:14;;;;;;;3.95;1.90;;;10.80;93.60;;;;;;4931111;29;20047;-75
2023/10/26 21:04:40;;;;;;;3.45;1.85;;;10.80;93.60;;;;;;4914974;29;20521;-75
2023/10/26 21:07:07;;;;;;;4.90;2.50;;;10.80;93.60;;;;;;4932339;29;20047;-75
2023/10/26 21:09:33;;;;;;;4.03;2.22;;;10.80;93.60;;;;;;4915408;29;20456;-75
2023/10/26 21:11:58;;;;;;;4.75;2.53;;;10.80;93.60;;;;;;4915718;29;20055;-75
2023/10/26 21:14:24;;;;;;;4.05;2.05;;;10.80;93.60;;;;;;4916273;29;20076;-75
2023/10/26 21:16:50;;;;;;;5.15;2.60;;;10.80;93.60;;;;;;4932659;29;20032;-75
2023/10/26 21:19:15;;;;;;;4.82;2.30;;;10.80;93.60;;;;;;4929740;29;20036;-75
2023/10/26 21:21:41;;;;;;;4.03;2.17;;;10.80;93.60;;;;;;4887852;29;20112;-75
2023/10/26 21:24:08;;;;;;;3.92;2.10;;;10.80;93.60;;;;;;4906740;29;20052;-75
2023/10/26 21:26:33;;;;;;;4.40;2.40;;;10.80;93.60;;;;;;4872196;29;20116;-75
2023/10/26 21:28:59;;;;;;;5.00;2.38;;;10.70;93.60;;;;;;4887841;29;20076;-75
2023/10/26 21:31:25;;;;;;;4.32;2.35;;;10.80;93.60;;;;;;4889136;29;20458;-75
2023/10/26 21:33:54;;;;;;;3.83;2.13;;;10.70;93.60;;;;;;4888974;29;20044;-75
2023/10/26 21:36:20;;;;;;;3.80;2.20;;;10.70;93.60;;;;;;4890725;29;20037;-75
2023/10/26 21:38:47;;;;;;;3.58;1.80;;;10.70;93.60;;;;;;4876944;29;20051;-75
2023/10/26 21:41:13;;;;;;;4.18;2.22;;;10.70;93.60;;;;;;4910673;29;20041;-75
2023/10/26 21:43:39;;;;;;;3.72;2.08;;;10.70;93.60;;;;;;4910987;29;20055;-75
2023/10/26 21:46:05;;;;;;;5.22;2.58;;;10.70;93.60;;;;;;4879896;29;20052;-75
2023/10/26 21:48:31;;;;;;;4.55;2.20;;;10.60;93.60;;;;;;4910969;29;20077;-75
2023/10/26 21:50:57;;;;;;;4.68;2.35;;;10.80;93.70;;;;;;4910450;29;20148;-75
2023/10/26 21:53:23;;;;;;;4.40;2.30;;;10.70;93.70;;;;;;4910329;29;20052;-75
2023/10/26 21:55:49;;;;;;;5.40;2.60;;;10.70;93.70;;;;;;4929644;29;20094;-75
2023/10/26 21:58:15;;;;;;;4.15;2.40;;;10.60;93.70;;;;;;4914978;29;20109;-75
2023/10/26 22:00:40;;;;;;;4.22;2.33;;;10.60;93.70;;;;;;4914409;29;20044;-75
2023/10/26 22:03:06;;;;;;;5.20;2.33;;;10.50;93.70;;;;;;4931721;29;20072;-75
2023/10/26 22:05:32;;;;;;;4.80;2.60;;;10.50;93.70;;;;;;4915352;29;20044;-75
2023/10/26 22:07:58;;;;;;;3.92;2.10;;;10.50;93.70;;;;;;4919550;29;20048;-75
2023/10/26 22:10:23;;;;;;;3.90;2.10;;;10.50;93.70;;;;;;4935755;29;20044;-75
2023/10/26 22:12:49;;;;;;;3.60;1.85;;;10.50;93.70;;;;;;4920033;29;20035;-75
2023/10/26 22:15:15;;;;;;;5.10;2.60;;;10.40;93.70;;;;;;4918921;29;20131;-75
2023/10/26 22:17:41;;;;;;;3.53;1.90;;;10.40;93.60;;;;;;4917737;29;20067;-75
2023/10/26 22:20:08;;;;;;;4.63;2.33;;;10.40;93.70;;;;;;4934007;29;20791;-75
2023/10/26 22:22:35;;;;;;;5.05;2.20;;;10.40;93.70;;;;;;4914767;29;20020;-75
2023/10/26 22:25:01;;;;;;;4.63;2.50;;;10.30;93.70;;;;;;4934690;29;20064;-74
2023/10/26 22:27:29;;;;;;;5.13;2.63;;;10.30;93.70;;;;;;4934355;29;20036;-74
2023/10/26 22:29:56;;;;;;;4.30;2.25;;;10.30;93.80;;;;;;4902777;29;20059;-74
2023/10/26 22:32:22;;;;;;;4.30;2.33;;;10.40;93.80;;;;;;4934966;29;20035;-75
2023/10/26 22:34:48;;;;;;;4.50;2.20;;;10.30;93.80;;;;;;4933909;29;20108;-75
2023/10/26 22:37:13;;;;;;;4.97;2.58;;;10.40;93.80;;;;;;4932990;29;20036;-75
2023/10/26 22:39:39;;;;;;;4.55;2.15;;;10.30;93.80;;;;;;4933777;29;20041;-75
2023/10/26 22:42:05;;;;;;;5.25;2.50;;;10.30;93.80;;;;;;4933922;29;20596;-75
2023/10/26 22:44:31;;;;;;;5.15;2.45;;;10.30;93.70;;;;;;4933492;29;20059;-75
2023/10/26 22:46:56;;;;;;;4.88;2.22;;;10.30;93.70;;;;;;4917301;29;20123;-75
2023/10/26 22:49:22;;;;;;;3.97;2.10;;;10.30;93.70;;;;;;4917712;29;20044;-75
2023/10/26 22:51:48;;;;;;;4.90;2.20;;;10.30;93.70;;;;;;4918630;29;20045;-75
2023/10/26 22:54:14;;;;;;;4.22;2.30;;;10.30;93.70;;;;;;4919191;29;20072;-75
2023/10/26 22:56:40;;;;;;;5.32;2.40;;;10.30;93.70;;;;;;4935215;29;20048;-75
2023/10/26 22:59:06;;;;;;;4.65;2.20;;;10.40;93.70;;;;;;4918640;29;20077;-75
2023/10/26 23:01:33;;;;;;;4.40;2.20;;;10.40;93.70;;;;;;4934450;29;20116;-75
2023/10/26 23:03:58;;;;;;;4.13;2.25;;;10.40;93.70;;;;;;4917745;29;20112;-75
2023/10/26 23:06:28;;;;;;;3.63;2.10;;;10.40;93.70;;;;;;4934833;29;20047;-74
2023/10/26 23:08:54;;;;;;;3.67;2.00;;;10.50;93.70;;;;;;4934320;29;20055;-74
2023/10/26 23:11:20;;;;;;;3.53;1.83;;;10.40;93.60;;;;;;4934589;29;20045;-75
2023/10/26 23:13:52;;;;;;;3.78;1.90;;;10.40;93.60;;;;;;4917578;29;20048;-75
2023/10/26 23:16:18;;;;;;;3.42;1.90;;;10.50;93.60;;;;;;4928535;29;20036;-75
2023/10/26 23:18:44;;;;;;;2.78;1.63;;;10.40;93.60;;;;;;4930652;29;20064;-75
2023/10/26 23:21:10;;;;;;;3.70;1.88;;;10.40;93.60;;;;;;4929693;29;20407;-75
2023/10/26 23:23:39;;;;;;;3.78;1.67;;;10.40;93.60;;;;;;4912553;29;20052;-75
2023/10/26 23:26:08;;;;;;;4.18;2.05;;;10.40;93.60;;;;;;4911356;29;20075;-75
2023/10/26 23:28:34;;;;;;;3.42;1.77;;;10.50;93.60;;;;;;4928412;29;20450;-75
2023/10/26 23:31:00;;;;;;;5.10;2.22;;;10.50;93.60;;;;;;4896909;29;20040;-75
2023/10/26 23:33:26;;;;;;;4.32;2.10;;;10.50;93.60;;;;;;4931050;29;20052;-75
2023/10/26 23:35:51;;;;;;;4.22;2.13;;;10.50;93.60;;;;;;4931456;29;20032;-75
2023/10/26 23:38:17;;;;;;;4.55;2.20;;;10.50;93.60;;;;;;4931884;29;20098;-75
2023/10/26 23:40:43;;;;;;;3.80;2.10;;;10.40;93.60;;;;;;4931939;29;20044;-75
2023/10/26 23:43:09;;;;;;;5.05;2.45;;;10.50;93.60;;;;;;4900812;29;20047;-75
2023/10/26 23:45:34;;;;;;;4.57;2.20;;;10.50;93.60;;;;;;4914412;29;20060;-75
2023/10/26 23:48:00;;;;;;;4.97;2.20;;;10.50;93.60;;;;;;4934239;29;20036;-75
2023/10/26 23:50:26;;;;;;;4.28;2.10;;;10.50;93.60;;;;;;4917904;29;20037;-75
2023/10/26 23:52:52;;;;;;;4.22;2.20;;;10.60;93.60;;;;;;4934585;29;20055;-75
2023/10/26 23:55:17;;;;;;;5.15;2.50;;;10.60;93.60;;;;;;4917969;29;20059;-75
2023/10/26 23:57:43;;;;;;;4.20;2.13;;;10.60;93.60;;;;;;4918805;29;20040;-75
